createdAt,value
2018-02-01T00:00:05.766Z,23.73
2018-02-01T00:02:34.024Z,25.90
2018-02-01T00:05:02.290Z,28.03
2018-02-01T00:07:30.579Z,46.07
2018-02-01T00:09:58.849Z,32.80
2018-02-01T00:12:27.118Z,40.47
2018-02-01T00:14:55.974Z,32.73
2018-02-01T00:17:24.223Z,28.10
2018-02-01T00:19:52.491Z,33.43
2018-02-01T00:22:20.746Z,26.40
2018-02-01T00:24:49.014Z,47.40
2018-02-01T00:27:17.581Z,31.77
2018-02-01T00:29:45.846Z,35.43
2018-02-01T00:32:14.093Z,49.87
2018-02-01T00:34:42.368Z,46.10
2018-02-01T00:37:11.249Z,61.83
2018-02-01T00:39:39.800Z,69.40
2018-02-01T00:42:09.001Z,61.90
2018-02-01T00:44:37.258Z,79.10
2018-02-01T00:47:05.517Z,51.07
2018-02-01T00:49:33.799Z,66.40
2018-02-01T00:52:02.293Z,67.00
2018-02-01T00:54:30.551Z,61.90
2018-02-01T00:56:58.802Z,63.47
2018-02-01T00:59:27.079Z,109.27
2018-02-01T01:01:55.589Z,75.67
2018-02-01T01:04:23.849Z,61.17
2018-02-01T01:06:52.101Z,64.77
2018-02-01T01:09:20.372Z,70.20
2018-02-01T01:11:48.648Z,87.43
2018-02-01T01:14:16.911Z,62.67
2018-02-01T01:16:45.170Z,58.77
2018-02-01T01:19:14.185Z,57.97
2018-02-01T01:21:42.455Z,85.63
2018-02-01T01:24:10.714Z,69.97
2018-02-01T01:26:38.969Z,63.37
2018-02-01T01:29:08.014Z,75.27
2018-02-01T01:31:36.282Z,76.00
2018-02-01T01:34:04.540Z,79.30
2018-02-01T01:36:32.816Z,176.60
2018-02-01T01:39:01.125Z,66.97
2018-02-01T01:41:29.389Z,63.00
2018-02-01T01:43:57.643Z,187.13
2018-02-01T01:46:25.894Z,102.40
2018-02-01T01:48:55.143Z,97.33
2018-02-01T01:51:23.431Z,114.20
2018-02-01T01:53:51.710Z,62.97
2018-02-01T01:56:19.969Z,139.30
2018-02-01T01:58:48.238Z,184.20
2018-02-01T02:01:16.490Z,81.17
2018-02-01T02:03:44.423Z,105.13
2018-02-01T02:06:12.696Z,117.80
2018-02-01T02:08:40.949Z,85.50
2018-02-01T02:11:09.214Z,64.90
2018-02-01T02:13:37.912Z,106.30
2018-02-01T02:16:06.176Z,58.00
2018-02-01T02:18:34.419Z,69.70
2018-02-01T02:21:03.465Z,53.50
2018-02-01T02:23:31.723Z,89.13
2018-02-01T02:26:00.538Z,63.63
2018-02-01T02:28:28.804Z,108.43
2018-02-01T02:30:57.069Z,76.67
2018-02-01T02:33:24.999Z,161.57
2018-02-01T02:35:53.268Z,75.63
2018-02-01T02:38:22.360Z,83.83
2018-02-01T02:40:51.336Z,109.07
2018-02-01T02:43:19.584Z,69.57
2018-02-01T02:45:47.833Z,66.87
2018-02-01T02:48:16.654Z,100.37
2018-02-01T02:50:44.918Z,103.90
2018-02-01T02:53:13.176Z,58.33
2018-02-01T02:55:41.781Z,62.37
2018-02-01T02:58:10.734Z,61.63
2018-02-01T03:00:38.991Z,53.47
2018-02-01T03:03:07.230Z,75.07
2018-02-01T03:05:35.480Z,70.33
2018-02-01T03:08:03.737Z,53.67
2018-02-01T03:10:31.997Z,56.90
2018-02-01T03:13:00.276Z,109.63
2018-02-01T03:15:28.537Z,109.20
2018-02-01T03:17:56.793Z,46.23
2018-02-01T03:20:25.046Z,53.97
2018-02-01T03:22:53.310Z,75.17
2018-02-01T03:25:21.588Z,135.23
2018-02-01T03:27:49.910Z,103.07
2018-02-01T03:30:18.357Z,68.57
2018-02-01T03:32:46.614Z,65.60
2018-02-01T03:35:14.875Z,62.77
2018-02-01T03:37:43.126Z,75.87
2018-02-01T03:40:11.381Z,111.50
2018-02-01T03:42:39.629Z,77.93
2018-02-01T03:45:10.443Z,111.33
2018-02-01T03:47:38.749Z,94.03
2018-02-01T03:50:08.981Z,90.40
2018-02-01T03:52:37.530Z,79.57
2018-02-01T03:55:08.842Z,108.07
2018-02-01T03:57:37.125Z,102.93
2018-02-01T04:00:08.036Z,121.67
2018-02-01T04:02:36.309Z,115.03
2018-02-01T04:05:05.395Z,103.10
2018-02-01T04:07:35.469Z,119.33
2018-02-01T04:10:04.487Z,108.63
2018-02-01T04:12:32.757Z,88.43
2018-02-01T04:15:01.550Z,89.40
2018-02-01T04:17:29.800Z,97.90
2018-02-01T04:19:58.076Z,104.00
2018-02-01T04:22:26.345Z,109.47
2018-02-01T04:24:54.612Z,96.97
2018-02-01T04:27:22.868Z,116.10
2018-02-01T04:29:51.121Z,121.90
2018-02-01T04:32:19.446Z,137.30
2018-02-01T04:34:47.704Z,121.23
2018-02-01T04:37:15.952Z,141.40
2018-02-01T04:39:44.838Z,134.43
2018-02-01T04:42:13.843Z,160.63
2018-02-01T04:44:42.619Z,125.60
2018-02-01T04:47:10.549Z,113.33
2018-02-01T04:49:38.815Z,104.03
2018-02-01T04:52:07.069Z,97.83
2018-02-01T04:54:35.342Z,94.93
2018-02-01T04:57:03.606Z,100.57
2018-02-01T04:59:31.166Z,95.17
2018-02-01T05:01:59.432Z,124.80
2018-02-01T05:04:27.680Z,103.30
2018-02-01T05:06:55.945Z,110.53
2018-02-01T05:09:24.228Z,112.20
2018-02-01T05:11:53.457Z,107.33
2018-02-01T05:14:21.717Z,107.10
2018-02-01T05:16:49.977Z,89.30
2018-02-01T05:19:18.238Z,98.60
2018-02-01T05:21:48.120Z,101.10
2018-02-01T05:24:17.442Z,98.97
2018-02-01T05:26:45.684Z,93.30
2018-02-01T05:29:13.955Z,97.63
2018-02-01T05:31:44.663Z,88.97
2018-02-01T05:34:12.285Z,79.43
2018-02-01T05:36:40.538Z,80.73
2018-02-01T05:39:09.007Z,79.60
2018-02-01T05:41:37.077Z,69.30
2018-02-01T05:44:05.354Z,73.03
2018-02-01T05:46:33.609Z,67.73
2018-02-01T05:49:01.879Z,53.47
2018-02-01T05:51:30.150Z,57.90
2018-02-01T05:53:57.938Z,60.17
2018-02-01T05:56:26.197Z,50.40
2018-02-01T05:58:55.080Z,57.20
2018-02-01T06:01:23.333Z,58.53
2018-02-01T06:03:52.418Z,56.37
2018-02-01T06:06:20.793Z,62.00
2018-02-01T06:08:49.053Z,56.33
2018-02-01T06:11:18.098Z,56.57
2018-02-01T06:13:46.833Z,53.57
2018-02-01T06:16:15.841Z,53.70
2018-02-01T06:18:44.098Z,54.67
2018-02-01T06:21:12.642Z,50.30
2018-02-01T06:23:40.942Z,56.00
2018-02-01T06:26:09.201Z,54.73
2018-02-01T06:28:37.449Z,55.83
2018-02-01T06:31:05.553Z,55.93
2018-02-01T06:33:33.809Z,58.00
2018-02-01T06:36:02.093Z,58.23
2018-02-01T06:38:30.341Z,55.20
2018-02-01T06:40:58.263Z,55.53
2018-02-01T06:43:26.565Z,59.80
2018-02-01T06:45:54.829Z,59.83
2018-02-01T06:48:23.088Z,61.40
2018-02-01T06:50:51.797Z,66.33
2018-02-01T06:53:19.729Z,68.20
2018-02-01T06:55:47.988Z,74.67
2018-02-01T06:58:16.252Z,78.17
2018-02-01T07:00:56.189Z,73.97
2018-02-01T07:03:24.439Z,89.83
2018-02-01T07:05:52.713Z,85.30
2018-02-01T07:08:21.710Z,83.07
2018-02-01T07:10:49.982Z,77.90
2018-02-01T07:13:18.237Z,96.23
2018-02-01T07:15:46.491Z,113.60
2018-02-01T07:18:15.981Z,88.93
2018-02-01T07:20:44.264Z,119.50
2018-02-01T07:23:12.547Z,93.63
2018-02-01T07:25:40.893Z,90.77
2018-02-01T07:28:08.995Z,80.90
2018-02-01T07:30:37.982Z,85.83
2018-02-01T07:33:06.749Z,100.63
2018-02-01T07:35:35.019Z,82.37
2018-02-01T07:38:03.318Z,88.67
2018-02-01T07:40:32.090Z,95.90
2018-02-01T07:43:00.362Z,102.03
2018-02-01T07:45:28.917Z,99.60
2018-02-01T07:47:57.164Z,80.90
2018-02-01T07:50:25.420Z,90.63
2018-02-01T07:52:53.689Z,88.20
2018-02-01T07:55:21.939Z,88.10
2018-02-01T07:57:51.876Z,77.27
2018-02-01T08:00:20.978Z,89.70
2018-02-01T08:02:49.545Z,94.10
2018-02-01T08:05:17.802Z,85.37
2018-02-01T08:07:46.059Z,97.47
2018-02-01T08:10:13.987Z,107.70
2018-02-01T08:12:42.243Z,99.63
2018-02-01T08:15:10.506Z,83.10
2018-02-01T08:17:41.241Z,96.03
2018-02-01T08:20:14.390Z,76.80
2018-02-01T08:22:42.645Z,66.60
2018-02-01T08:25:10.901Z,61.10
2018-02-01T08:27:38.844Z,61.53
2018-02-01T08:30:06.424Z,62.20
2018-02-01T08:32:34.684Z,59.83
2018-02-01T08:35:03.150Z,63.83
2018-02-01T08:37:31.502Z,66.40
2018-02-01T08:39:59.745Z,57.13
2018-02-01T08:42:28.008Z,73.63
2018-02-01T08:44:55.775Z,73.50
2018-02-01T08:47:24.124Z,66.60
2018-02-01T08:49:52.220Z,54.93
2018-02-01T08:52:20.521Z,45.30
2018-02-01T08:54:48.635Z,48.73
2018-02-01T08:57:16.890Z,50.80
2018-02-01T08:59:45.137Z,46.73
2018-02-01T09:02:13.516Z,60.67
2018-02-01T09:04:41.777Z,41.30
2018-02-01T09:07:10.037Z,50.03
2018-02-01T09:09:38.019Z,46.53
2018-02-01T09:12:06.264Z,42.53
2018-02-01T09:14:36.411Z,48.03
2018-02-01T09:17:04.669Z,44.07
2018-02-01T09:19:32.952Z,44.77
2018-02-01T09:22:01.227Z,40.27
2018-02-01T09:24:29.498Z,37.10
2018-02-01T09:26:57.765Z,33.83
2018-02-01T09:29:26.013Z,37.40
2018-02-01T09:31:54.270Z,36.87
2018-02-01T09:34:22.630Z,42.03
2018-02-01T09:36:50.892Z,37.77
2018-02-01T09:39:19.140Z,47.03
2018-02-01T09:41:47.425Z,43.50
2018-02-01T09:44:15.686Z,35.63
2018-02-01T09:46:43.250Z,44.90
2018-02-01T09:49:11.517Z,40.97
2018-02-01T09:51:39.774Z,39.73
2018-02-01T09:54:08.036Z,41.17
2018-02-01T09:56:37.347Z,39.30
2018-02-01T09:59:05.623Z,38.77
2018-02-01T10:01:34.951Z,38.77
2018-02-01T10:04:03.202Z,31.83
2018-02-01T10:06:31.481Z,43.20
2018-02-01T10:09:00.093Z,37.37
2018-02-01T10:11:28.342Z,51.03
2018-02-01T10:13:57.373Z,37.87
2018-02-01T10:16:25.619Z,39.17
2018-02-01T10:18:53.559Z,36.53
2018-02-01T10:21:21.825Z,42.53
2018-02-01T10:23:50.101Z,36.97
2018-02-01T10:26:18.353Z,37.63
2018-02-01T10:28:46.616Z,46.13
2018-02-01T10:31:14.676Z,44.23
2018-02-01T10:33:43.421Z,38.67
2018-02-01T10:36:11.934Z,42.27
2018-02-01T10:38:40.188Z,40.87
2018-02-01T10:41:08.442Z,46.47
2018-02-01T10:43:36.697Z,49.40
2018-02-01T10:46:05.669Z,46.30
2018-02-01T10:48:33.934Z,46.40
2018-02-01T10:51:02.199Z,47.27
2018-02-01T10:53:30.461Z,48.43
2018-02-01T10:55:58.729Z,43.07
2018-02-01T10:58:27.007Z,39.13
2018-02-01T11:00:55.061Z,42.47
2018-02-01T11:03:23.318Z,48.13
2018-02-01T11:05:51.641Z,44.43
2018-02-01T11:08:19.917Z,50.97
2018-02-01T11:10:48.166Z,51.87
2018-02-01T11:13:16.409Z,55.40
2018-02-01T11:15:45.470Z,42.30
2018-02-01T11:18:14.037Z,48.60
2018-02-01T11:20:42.854Z,46.67
2018-02-01T11:23:11.104Z,48.03
2018-02-01T11:25:39.360Z,47.43
2018-02-01T11:28:07.629Z,67.37
2018-02-01T11:30:35.882Z,43.37
2018-02-01T11:33:04.141Z,42.60
2018-02-01T11:35:32.413Z,41.10
2018-02-01T11:38:00.670Z,48.20
2018-02-01T11:40:28.936Z,46.23
2018-02-01T11:42:57.723Z,41.90
2018-02-01T11:45:26.608Z,54.43
2018-02-01T11:47:54.185Z,54.97
2018-02-01T11:50:22.478Z,42.90
2018-02-01T11:52:50.737Z,44.37
2018-02-01T11:55:18.983Z,42.43
2018-02-01T11:57:47.278Z,44.43
2018-02-01T12:00:15.555Z,55.00
2018-02-01T12:02:43.819Z,32.97
2018-02-01T12:05:12.109Z,38.43
2018-02-01T12:07:40.479Z,36.07
2018-02-01T12:10:09.349Z,29.43
2018-02-01T12:12:37.630Z,29.03
2018-02-01T12:15:07.157Z,31.53
2018-02-01T12:17:35.432Z,25.50
2018-02-01T12:20:03.498Z,39.13
2018-02-01T12:22:32.494Z,20.73
2018-02-01T12:25:00.745Z,27.70
2018-02-01T12:27:29.009Z,28.73
2018-02-01T12:29:57.293Z,29.20
2018-02-01T12:32:25.573Z,36.90
2018-02-01T12:34:53.850Z,27.20
2018-02-01T12:37:22.119Z,36.80
2018-02-01T12:39:50.382Z,36.27
2018-02-01T12:42:18.657Z,25.60
2018-02-01T12:44:46.907Z,28.60
2018-02-01T12:47:15.155Z,37.00
2018-02-01T12:49:43.407Z,24.67
2018-02-01T12:52:11.734Z,29.80
2018-02-01T12:54:39.983Z,32.40
2018-02-01T12:57:08.247Z,34.83
2018-02-01T12:59:37.109Z,31.13
2018-02-01T13:02:04.682Z,24.63
2018-02-01T13:04:33.197Z,25.40
2018-02-01T13:07:01.483Z,29.93
2018-02-01T13:09:29.734Z,34.47
2018-02-01T13:11:57.993Z,25.23
2018-02-01T13:14:26.241Z,28.90
2018-02-01T13:16:54.485Z,34.07
2018-02-01T13:19:22.737Z,31.23
2018-02-01T13:21:50.997Z,31.73
2018-02-01T13:24:19.253Z,29.60
2018-02-01T13:26:47.514Z,36.60
2018-02-01T13:29:15.790Z,41.07
2018-02-01T13:31:44.182Z,33.57
2018-02-01T13:34:12.118Z,33.70
2018-02-01T13:36:40.392Z,36.50
2018-02-01T13:39:08.663Z,46.77
2018-02-01T13:41:36.942Z,64.87
2018-02-01T13:44:05.443Z,46.37
2018-02-01T13:46:33.704Z,41.13
2018-02-01T13:49:01.998Z,53.53
2018-02-01T13:51:30.299Z,42.03
2018-02-01T13:53:58.565Z,48.40
2018-02-01T13:56:26.862Z,44.83
2018-02-01T13:58:55.133Z,64.27
2018-02-01T14:01:23.474Z,46.67
2018-02-01T14:03:52.714Z,46.00
2018-02-01T14:06:21.012Z,52.10
2018-02-01T14:08:49.353Z,39.67
2018-02-01T14:11:17.647Z,48.20
2018-02-01T14:13:46.096Z,64.20
2018-02-01T14:16:14.377Z,62.87
2018-02-01T14:18:42.719Z,58.90
2018-02-01T14:21:11.048Z,57.90
2018-02-01T14:23:39.312Z,48.87
2018-02-01T14:26:07.588Z,75.07
2018-02-01T14:28:37.723Z,59.47
2018-02-01T14:31:06.005Z,43.63
2018-02-01T14:33:34.262Z,53.83
2018-02-01T14:36:02.688Z,56.13
2018-02-01T14:38:31.102Z,44.33
2018-02-01T14:40:59.426Z,51.97
2018-02-01T14:43:27.748Z,62.03
2018-02-01T14:45:56.005Z,55.33
2018-02-01T14:48:24.484Z,53.23
2018-02-01T14:50:52.745Z,46.87
2018-02-01T14:53:21.010Z,45.77
2018-02-01T14:55:49.254Z,44.90
2018-02-01T14:58:17.525Z,48.73
2018-02-01T15:00:45.778Z,55.30
2018-02-01T15:03:14.033Z,37.70
2018-02-01T15:05:42.492Z,50.60
2018-02-01T15:08:10.560Z,43.00
2018-02-01T15:10:38.841Z,57.90
2018-02-01T15:13:07.093Z,44.20
2018-02-01T15:15:35.347Z,39.90
2018-02-01T15:18:03.669Z,60.67
2018-02-01T15:20:31.921Z,66.47
2018-02-01T15:23:00.866Z,46.03
2018-02-01T15:25:29.129Z,46.73
2018-02-01T15:27:57.415Z,44.33
2018-02-01T15:30:25.713Z,44.57
2018-02-01T15:32:55.178Z,43.63
2018-02-01T15:35:23.423Z,43.13
2018-02-01T15:37:51.676Z,42.73
2018-02-01T15:40:19.947Z,65.43
2018-02-01T15:42:48.249Z,57.33
2018-02-01T15:45:16.510Z,71.60
2018-02-01T15:47:44.808Z,53.80
2018-02-01T15:50:13.073Z,59.73
2018-02-01T15:52:41.922Z,60.60
2018-02-01T15:55:11.046Z,71.33
2018-02-01T15:57:39.340Z,64.90
2018-02-01T16:00:07.601Z,81.53
2018-02-01T16:02:36.441Z,57.73
2018-02-01T16:05:04.743Z,32.07
2018-02-01T16:07:32.990Z,16.57
2018-02-01T16:10:01.220Z,4.57
2018-02-01T16:12:36.020Z,1.87
2018-02-01T16:15:03.894Z,1.60
2018-02-01T16:17:32.180Z,1.30
2018-02-01T16:20:01.099Z,0.90
2018-02-01T16:22:29.353Z,0.93
2018-02-01T16:24:57.617Z,1.50
2018-02-01T16:27:25.884Z,1.77
2018-02-01T16:29:54.177Z,0.93
2018-02-01T16:32:22.468Z,5.07
2018-02-01T16:34:50.750Z,2.40
2018-02-01T16:37:19.073Z,1.03
2018-02-01T16:39:47.350Z,2.53
2018-02-01T16:42:15.810Z,1.40
2018-02-01T16:44:44.075Z,1.47
2018-02-01T16:47:12.317Z,2.00
2018-02-01T16:49:41.607Z,1.63
2018-02-01T16:52:09.919Z,2.10
2018-02-01T16:54:38.178Z,1.60
2018-02-01T16:57:08.461Z,1.60
2018-02-01T16:59:37.319Z,1.60
2018-02-01T17:02:04.936Z,3.13
2018-02-01T17:04:33.185Z,1.53
2018-02-01T17:07:01.574Z,5.00
2018-02-01T17:09:29.841Z,1.53
2018-02-01T17:11:58.010Z,2.20
2018-02-01T17:14:26.285Z,1.27
2018-02-01T17:16:54.529Z,1.90
2018-02-01T17:19:22.769Z,1.23
2018-02-01T17:21:51.053Z,1.37
2018-02-01T17:24:19.301Z,1.10
2018-02-01T17:26:47.570Z,1.73
2018-02-01T17:29:15.888Z,1.30
2018-02-01T17:31:44.145Z,1.67
2018-02-01T17:34:12.398Z,2.53
2018-02-01T17:36:40.290Z,1.43
2018-02-01T17:39:08.961Z,1.53
2018-02-01T17:41:37.231Z,1.53
2018-02-01T17:44:06.453Z,1.00
2018-02-01T17:46:34.702Z,1.93
2018-02-01T17:49:02.967Z,1.10
2018-02-01T17:51:31.225Z,0.93
2018-02-01T17:53:59.465Z,1.00
2018-02-01T17:56:27.705Z,1.23
2018-02-01T17:58:56.413Z,1.30
2018-02-01T18:01:24.668Z,1.37
2018-02-01T18:03:52.904Z,3.70
2018-02-01T18:06:21.158Z,1.90
2018-02-01T18:08:49.407Z,2.60
2018-02-01T18:11:18.092Z,1.27
2018-02-01T18:13:46.450Z,1.63
2018-02-01T18:16:14.830Z,1.57
2018-02-01T18:18:43.242Z,1.37
2018-02-01T18:21:11.547Z,1.63
2018-02-01T18:23:40.422Z,0.80
2018-02-01T18:26:08.473Z,1.97
2018-02-01T18:28:36.831Z,0.80
2018-02-01T18:31:04.687Z,0.93
2018-02-01T18:33:32.971Z,1.20
2018-02-01T18:36:01.324Z,1.50
2018-02-01T18:38:29.601Z,1.00
2018-02-01T18:40:58.697Z,0.90
2018-02-01T18:43:26.968Z,1.50
2018-02-01T18:45:55.201Z,1.30
2018-02-01T18:48:23.550Z,2.00
2018-02-01T18:50:51.810Z,2.07
2018-02-01T18:53:20.059Z,1.40
2018-02-01T18:55:48.311Z,1.80
2018-02-01T18:58:16.550Z,2.20
2018-02-01T19:00:44.606Z,1.57
2018-02-01T19:03:12.858Z,5.00
2018-02-01T19:05:41.108Z,2.77
2018-02-01T19:08:09.370Z,2.30
2018-02-01T19:10:37.854Z,3.93
2018-02-01T19:13:06.116Z,2.60
2018-02-01T19:15:35.308Z,3.17
2018-02-01T19:18:03.566Z,3.30
2018-02-01T19:20:32.569Z,2.27
2018-02-01T19:23:00.852Z,1.93
2018-02-01T19:25:28.774Z,2.50
2018-02-01T19:27:56.345Z,3.70
2018-02-01T19:30:24.635Z,2.50
2018-02-01T19:32:52.891Z,2.63
2018-02-01T19:35:21.136Z,2.17
2018-02-01T19:37:49.389Z,2.27
2018-02-01T19:40:17.790Z,3.43
2018-02-01T19:42:46.237Z,2.53
2018-02-01T19:45:14.502Z,2.13
2018-02-01T19:47:42.749Z,2.23
2018-02-01T19:50:13.300Z,2.97
2018-02-01T19:52:41.546Z,2.00
2018-02-01T19:55:09.851Z,2.33
2018-02-01T19:57:41.682Z,2.10
2018-02-01T20:00:09.926Z,2.73
2018-02-01T20:02:38.190Z,2.57
2018-02-01T20:05:06.573Z,1.77
2018-02-01T20:07:34.817Z,2.53
2018-02-01T20:10:03.098Z,2.20
2018-02-01T20:12:32.021Z,3.50
2018-02-01T20:15:00.260Z,1.70
2018-02-01T20:17:28.518Z,2.63
2018-02-01T20:19:56.782Z,2.17
2018-02-01T20:22:25.029Z,1.93
2018-02-01T20:24:53.277Z,2.53
2018-02-01T20:27:21.533Z,2.27
2018-02-01T20:29:49.796Z,3.17
2018-02-01T20:32:18.037Z,2.17
2018-02-01T20:34:46.278Z,2.90
2018-02-01T20:37:14.534Z,2.40
2018-02-01T20:39:42.809Z,2.27
2018-02-01T20:42:11.054Z,2.33
2018-02-01T20:44:39.317Z,2.00
2018-02-01T20:47:07.585Z,2.20
2018-02-01T20:49:35.837Z,2.53
2018-02-01T20:52:04.085Z,3.13
2018-02-01T20:54:32.334Z,2.23
2018-02-01T20:57:00.605Z,3.13
2018-02-01T20:59:28.853Z,2.67
2018-02-01T21:01:56.713Z,1.57
2018-02-01T21:04:24.961Z,1.87
2018-02-01T21:06:53.219Z,1.40
2018-02-01T21:09:21.500Z,2.60
2018-02-01T21:11:50.187Z,1.77
2018-02-01T21:14:18.463Z,1.50
2018-02-01T21:16:46.713Z,1.20
2018-02-01T21:19:14.964Z,1.43
2018-02-01T21:21:43.217Z,1.30
2018-02-01T21:24:11.492Z,1.00
2018-02-01T21:26:39.735Z,6.10
2018-02-01T21:29:10.637Z,1.40
2018-02-01T21:31:39.074Z,1.10
2018-02-01T21:34:07.328Z,1.10
2018-02-01T21:36:35.567Z,1.10
2018-02-01T21:39:04.074Z,0.90
2018-02-01T21:41:32.325Z,1.20
2018-02-01T21:44:00.789Z,0.87
2018-02-01T21:46:29.057Z,0.80
2018-02-01T21:48:57.309Z,1.40
2018-02-01T21:51:25.567Z,0.97
2018-02-01T21:53:53.825Z,0.80
2018-02-01T21:56:22.084Z,0.90
2018-02-01T21:58:50.328Z,0.70
2018-02-01T22:01:18.585Z,1.27
2018-02-01T22:03:46.853Z,0.90
2018-02-01T22:06:15.105Z,1.00
2018-02-01T22:08:43.353Z,0.70
2018-02-01T22:11:11.787Z,0.70
2018-02-01T22:13:40.169Z,1.00
2018-02-01T22:16:08.580Z,0.90
2018-02-01T22:18:36.855Z,1.03
2018-02-01T22:21:06.017Z,0.90
2018-02-01T22:23:34.069Z,1.37
2018-02-01T22:26:02.317Z,0.80
2018-02-01T22:28:30.578Z,1.80
2018-02-01T22:30:58.829Z,0.70
2018-02-01T22:33:27.112Z,1.50
2018-02-01T22:35:55.385Z,1.13
2018-02-01T22:38:23.625Z,1.80
2018-02-01T22:40:51.922Z,2.00
2018-02-01T22:43:20.177Z,1.27
2018-02-01T22:45:48.461Z,1.73
2018-02-01T22:48:16.711Z,1.80
2018-02-01T22:50:44.967Z,2.30
2018-02-01T22:53:13.222Z,2.53
2018-02-01T22:55:41.484Z,1.50
2018-02-01T22:58:09.732Z,0.70
2018-02-01T23:00:37.961Z,0.80
2018-02-01T23:03:06.206Z,0.60
2018-02-01T23:05:34.458Z,1.70
2018-02-01T23:08:02.714Z,0.60
2018-02-01T23:10:31.248Z,0.60
2018-02-01T23:12:59.504Z,0.60
2018-02-01T23:15:27.760Z,0.70
2018-02-01T23:17:56.021Z,2.37
2018-02-01T23:20:24.257Z,0.87
2018-02-01T23:22:51.813Z,0.50
2018-02-01T23:25:20.106Z,0.60
2018-02-01T23:27:48.369Z,1.13
2018-02-01T23:30:16.751Z,1.20
2018-02-01T23:32:45.004Z,1.70
2018-02-01T23:35:13.933Z,0.50
2018-02-01T23:37:42.173Z,0.40
2018-02-01T23:40:10.440Z,0.50
2018-02-01T23:42:38.683Z,0.57
2018-02-01T23:45:08.800Z,1.43
2018-02-01T23:47:37.038Z,2.67
2018-02-01T23:50:05.470Z,0.50
2018-02-01T23:52:33.708Z,0.40
2018-02-01T23:55:01.985Z,0.40
2018-02-01T23:57:30.604Z,1.27
2018-02-01T23:59:59.002Z,0.70
